Terminal Aerodrome Forecast
Issued by NWS

Home | Current Version | Previous Version | Text Only | Print | Product List | Glossary Off
Versions: 1 2 3 4 5 6 7 8 9 10 11 12 13 14 15 16 17 18 19 20 21 22 23

000
FTUS43 KGRB 151321 AAB
TAFRHI
TAF AMD
KRHI 151321Z 1513/1612 06004KT 4SM -SN SCT025 OVC050
     FM151500 07005KT 2SM -SN BKN020 OVC035
     FM152000 05006KT 4SM -SN OVC015
     FM160000 04005KT P6SM -SN OVC015
     FM160200 36004KT P6SM OVC015=

USA.gov is the U.S. government's official web portal to all federal, state and local government web resources and services.